sensor_id;sensor_type;location;lat;lon;timestamp;P1;durP1;ratioP1;P2;durP2;ratioP2
24761;SDS011;12865;51.934;10.330;2024-02-21T00:02:14;19.48;;;8.07;;
24761;SDS011;12865;51.934;10.330;2024-02-21T00:05:00;17.42;;;7.72;;
24761;SDS011;12865;51.934;10.330;2024-02-21T00:07:46;20.83;;;7.93;;
24761;SDS011;12865;51.934;10.330;2024-02-21T00:10:31;14.85;;;7.00;;
24761;SDS011;12865;51.934;10.330;2024-02-21T00:13:18;15.88;;;7.20;;
24761;SDS011;12865;51.934;10.330;2024-02-21T00:16:04;23.90;;;8.55;;
24761;SDS011;12865;51.934;10.330;2024-02-21T00:18:49;26.20;;;9.23;;
24761;SDS011;12865;51.934;10.330;2024-02-21T00:21:35;27.35;;;8.88;;
24761;SDS011;12865;51.934;10.330;2024-02-21T00:24:21;17.95;;;7.20;;
24761;SDS011;12865;51.934;10.330;2024-02-21T00:27:06;16.38;;;7.18;;
24761;SDS011;12865;51.934;10.330;2024-02-21T00:29:52;16.38;;;6.78;;
24761;SDS011;12865;51.934;10.330;2024-02-21T00:32:38;18.33;;;7.22;;
24761;SDS011;12865;51.934;10.330;2024-02-21T00:35:24;18.20;;;7.40;;
24761;SDS011;12865;51.934;10.330;2024-02-21T00:38:10;18.33;;;7.45;;
24761;SDS011;12865;51.934;10.330;2024-02-21T00:40:56;17.55;;;8.50;;
24761;SDS011;12865;51.934;10.330;2024-02-21T00:43:41;20.02;;;7.68;;
24761;SDS011;12865;51.934;10.330;2024-02-21T00:46:27;15.18;;;7.05;;
24761;SDS011;12865;51.934;10.330;2024-02-21T00:49:13;19.75;;;8.05;;
24761;SDS011;12865;51.934;10.330;2024-02-21T00:51:58;22.60;;;7.70;;
24761;SDS011;12865;51.934;10.330;2024-02-21T00:54:44;21.58;;;7.63;;
24761;SDS011;12865;51.934;10.330;2024-02-21T00:57:30;20.67;;;8.05;;
24761;SDS011;12865;51.934;10.330;2024-02-21T01:00:16;20.02;;;7.90;;
24761;SDS011;12865;51.934;10.330;2024-02-21T01:03:02;20.77;;;7.50;;
24761;SDS011;12865;51.934;10.330;2024-02-21T01:05:48;21.55;;;7.25;;
24761;SDS011;12865;51.934;10.330;2024-02-21T01:08:33;17.67;;;7.53;;
24761;SDS011;12865;51.934;10.330;2024-02-21T01:11:19;22.23;;;8.52;;
24761;SDS011;12865;51.934;10.330;2024-02-21T01:14:05;19.90;;;7.93;;
24761;SDS011;12865;51.934;10.330;2024-02-21T01:16:51;18.67;;;7.75;;
24761;SDS011;12865;51.934;10.330;2024-02-21T01:19:36;16.27;;;7.43;;
24761;SDS011;12865;51.934;10.330;2024-02-21T01:22:22;19.70;;;7.75;;
24761;SDS011;12865;51.934;10.330;2024-02-21T01:25:08;20.75;;;8.45;;
24761;SDS011;12865;51.934;10.330;2024-02-21T01:27:54;15.73;;;7.78;;
24761;SDS011;12865;51.934;10.330;2024-02-21T01:30:39;18.13;;;8.02;;
24761;SDS011;12865;51.934;10.330;2024-02-21T01:33:25;17.52;;;8.63;;
24761;SDS011;12865;51.934;10.330;2024-02-21T01:36:11;16.75;;;8.27;;
24761;SDS011;12865;51.934;10.330;2024-02-21T01:38:56;22.45;;;9.27;;
24761;SDS011;12865;51.934;10.330;2024-02-21T01:41:42;19.65;;;9.32;;
24761;SDS011;12865;51.934;10.330;2024-02-21T01:44:28;20.60;;;9.13;;
24761;SDS011;12865;51.934;10.330;2024-02-21T01:47:14;21.00;;;9.48;;
24761;SDS011;12865;51.934;10.330;2024-02-21T01:50:00;23.52;;;8.23;;
24761;SDS011;12865;51.934;10.330;2024-02-21T01:52:47;24.33;;;9.70;;
24761;SDS011;12865;51.934;10.330;2024-02-21T01:55:34;21.02;;;9.15;;
24761;SDS011;12865;51.934;10.330;2024-02-21T01:58:20;18.73;;;9.23;;
24761;SDS011;12865;51.934;10.330;2024-02-21T02:01:07;19.88;;;8.77;;
24761;SDS011;12865;51.934;10.330;2024-02-21T02:03:52;21.25;;;9.68;;
24761;SDS011;12865;51.934;10.330;2024-02-21T02:06:40;19.17;;;9.25;;
24761;SDS011;12865;51.934;10.330;2024-02-21T02:09:26;20.55;;;9.40;;
24761;SDS011;12865;51.934;10.330;2024-02-21T02:12:12;22.52;;;10.43;;
24761;SDS011;12865;51.934;10.330;2024-02-21T02:15:01;20.10;;;10.48;;
24761;SDS011;12865;51.934;10.330;2024-02-21T02:17:50;16.83;;;10.10;;
24761;SDS011;12865;51.934;10.330;2024-02-21T02:20:36;17.70;;;10.50;;
24761;SDS011;12865;51.934;10.330;2024-02-21T02:23:31;22.05;;;10.38;;
24761;SDS011;12865;51.934;10.330;2024-02-21T02:26:17;22.08;;;12.02;;
24761;SDS011;12865;51.934;10.330;2024-02-21T02:29:03;23.58;;;10.60;;
24761;SDS011;12865;51.934;10.330;2024-02-21T02:31:49;24.75;;;11.88;;
24761;SDS011;12865;51.934;10.330;2024-02-21T02:34:35;21.67;;;11.65;;
24761;SDS011;12865;51.934;10.330;2024-02-21T02:37:20;26.58;;;12.30;;
24761;SDS011;12865;51.934;10.330;2024-02-21T02:40:06;26.50;;;12.82;;
24761;SDS011;12865;51.934;10.330;2024-02-21T02:42:52;25.48;;;12.25;;
24761;SDS011;12865;51.934;10.330;2024-02-21T02:45:44;23.75;;;12.95;;
24761;SDS011;12865;51.934;10.330;2024-02-21T02:48:30;26.08;;;13.05;;
24761;SDS011;12865;51.934;10.330;2024-02-21T02:51:15;23.15;;;11.57;;
24761;SDS011;12865;51.934;10.330;2024-02-21T02:54:02;22.77;;;11.15;;
24761;SDS011;12865;51.934;10.330;2024-02-21T02:56:49;27.40;;;12.48;;
24761;SDS011;12865;51.934;10.330;2024-02-21T02:59:35;24.02;;;13.07;;
24761;SDS011;12865;51.934;10.330;2024-02-21T03:02:21;25.98;;;12.95;;
24761;SDS011;12865;51.934;10.330;2024-02-21T03:05:13;23.48;;;12.90;;
24761;SDS011;12865;51.934;10.330;2024-02-21T03:08:00;23.88;;;12.82;;
24761;SDS011;12865;51.934;10.330;2024-02-21T03:10:45;21.48;;;12.70;;
24761;SDS011;12865;51.934;10.330;2024-02-21T03:13:31;22.17;;;11.95;;
24761;SDS011;12865;51.934;10.330;2024-02-21T03:16:17;25.35;;;12.85;;
24761;SDS011;12865;51.934;10.330;2024-02-21T03:19:03;26.42;;;12.70;;
24761;SDS011;12865;51.934;10.330;2024-02-21T03:21:49;26.75;;;13.02;;
24761;SDS011;12865;51.934;10.330;2024-02-21T03:24:35;24.70;;;12.50;;
24761;SDS011;12865;51.934;10.330;2024-02-21T03:27:20;22.88;;;12.65;;
24761;SDS011;12865;51.934;10.330;2024-02-21T03:30:06;19.45;;;12.95;;
24761;SDS011;12865;51.934;10.330;2024-02-21T03:32:52;24.02;;;11.98;;
24761;SDS011;12865;51.934;10.330;2024-02-21T03:35:38;23.40;;;12.25;;
24761;SDS011;12865;51.934;10.330;2024-02-21T03:38:24;23.60;;;12.50;;
24761;SDS011;12865;51.934;10.330;2024-02-21T03:41:09;20.58;;;12.95;;
24761;SDS011;12865;51.934;10.330;2024-02-21T03:43:55;26.73;;;13.65;;
24761;SDS011;12865;51.934;10.330;2024-02-21T03:46:41;21.45;;;13.13;;
24761;SDS011;12865;51.934;10.330;2024-02-21T03:49:26;19.45;;;12.77;;
24761;SDS011;12865;51.934;10.330;2024-02-21T03:52:12;22.98;;;12.68;;
24761;SDS011;12865;51.934;10.330;2024-02-21T03:54:58;24.08;;;13.63;;
24761;SDS011;12865;51.934;10.330;2024-02-21T03:57:43;27.45;;;13.45;;
24761;SDS011;12865;51.934;10.330;2024-02-21T04:00:29;25.25;;;12.95;;
24761;SDS011;12865;51.934;10.330;2024-02-21T04:03:15;24.92;;;13.02;;
24761;SDS011;12865;51.934;10.330;2024-02-21T04:06:00;25.90;;;13.60;;
24761;SDS011;12865;51.934;10.330;2024-02-21T04:08:46;24.00;;;13.40;;
24761;SDS011;12865;51.934;10.330;2024-02-21T04:11:32;22.00;;;13.23;;
24761;SDS011;12865;51.934;10.330;2024-02-21T04:14:17;25.75;;;14.00;;
24761;SDS011;12865;51.934;10.330;2024-02-21T04:17:03;28.65;;;14.70;;
24761;SDS011;12865;51.934;10.330;2024-02-21T04:19:50;23.35;;;12.90;;
24761;SDS011;12865;51.934;10.330;2024-02-21T04:22:47;21.92;;;13.30;;
24761;SDS011;12865;51.934;10.330;2024-02-21T04:25:33;21.38;;;12.65;;
24761;SDS011;12865;51.934;10.330;2024-02-21T04:28:18;23.50;;;13.25;;
24761;SDS011;12865;51.934;10.330;2024-02-21T04:31:04;25.70;;;13.40;;
24761;SDS011;12865;51.934;10.330;2024-02-21T04:33:50;23.75;;;12.82;;
24761;SDS011;12865;51.934;10.330;2024-02-21T04:36:35;22.60;;;12.50;;
24761;SDS011;12865;51.934;10.330;2024-02-21T04:39:21;23.42;;;12.38;;
24761;SDS011;12865;51.934;10.330;2024-02-21T04:42:07;23.27;;;12.70;;
24761;SDS011;12865;51.934;10.330;2024-02-21T04:44:52;21.25;;;13.25;;
24761;SDS011;12865;51.934;10.330;2024-02-21T04:47:38;27.48;;;13.85;;
24761;SDS011;12865;51.934;10.330;2024-02-21T04:50:24;28.02;;;13.85;;
24761;SDS011;12865;51.934;10.330;2024-02-21T04:53:09;28.02;;;13.65;;
24761;SDS011;12865;51.934;10.330;2024-02-21T04:55:55;24.40;;;13.90;;
24761;SDS011;12865;51.934;10.330;2024-02-21T04:58:41;23.85;;;12.82;;
24761;SDS011;12865;51.934;10.330;2024-02-21T05:01:27;23.98;;;14.15;;
24761;SDS011;12865;51.934;10.330;2024-02-21T05:04:14;19.48;;;13.23;;
24761;SDS011;12865;51.934;10.330;2024-02-21T05:07:00;20.67;;;13.73;;
24761;SDS011;12865;51.934;10.330;2024-02-21T05:09:46;23.15;;;12.48;;
24761;SDS011;12865;51.934;10.330;2024-02-21T05:12:32;23.10;;;12.40;;
24761;SDS011;12865;51.934;10.330;2024-02-21T05:15:17;22.83;;;10.75;;
24761;SDS011;12865;51.934;10.330;2024-02-21T05:18:03;18.58;;;11.60;;
24761;SDS011;12865;51.934;10.330;2024-02-21T05:20:49;23.50;;;11.27;;
24761;SDS011;12865;51.934;10.330;2024-02-21T05:23:34;18.23;;;11.82;;
24761;SDS011;12865;51.934;10.330;2024-02-21T05:26:21;21.08;;;10.75;;
24761;SDS011;12865;51.934;10.330;2024-02-21T05:29:07;22.00;;;11.18;;
24761;SDS011;12865;51.934;10.330;2024-02-21T05:34:39;14.93;;;10.43;;
24761;SDS011;12865;51.934;10.330;2024-02-21T05:37:25;20.48;;;9.85;;
24761;SDS011;12865;51.934;10.330;2024-02-21T05:40:10;20.63;;;10.43;;
24761;SDS011;12865;51.934;10.330;2024-02-21T05:42:58;21.48;;;10.27;;
24761;SDS011;12865;51.934;10.330;2024-02-21T05:45:44;18.10;;;9.75;;
24761;SDS011;12865;51.934;10.330;2024-02-21T05:48:29;19.67;;;10.13;;
24761;SDS011;12865;51.934;10.330;2024-02-21T05:51:15;15.30;;;9.68;;
24761;SDS011;12865;51.934;10.330;2024-02-21T05:54:01;19.55;;;9.70;;
24761;SDS011;12865;51.934;10.330;2024-02-21T05:56:47;19.52;;;9.52;;
24761;SDS011;12865;51.934;10.330;2024-02-21T05:59:33;19.90;;;10.45;;
24761;SDS011;12865;51.934;10.330;2024-02-21T06:02:18;23.83;;;10.82;;
24761;SDS011;12865;51.934;10.330;2024-02-21T06:05:05;20.70;;;10.00;;
24761;SDS011;12865;51.934;10.330;2024-02-21T06:07:52;15.98;;;9.75;;
24761;SDS011;12865;51.934;10.330;2024-02-21T06:10:38;17.05;;;9.63;;
24761;SDS011;12865;51.934;10.330;2024-02-21T06:13:24;17.52;;;9.88;;
24761;SDS011;12865;51.934;10.330;2024-02-21T06:16:09;15.63;;;9.40;;
24761;SDS011;12865;51.934;10.330;2024-02-21T06:18:55;18.65;;;9.25;;
24761;SDS011;12865;51.934;10.330;2024-02-21T06:21:41;20.70;;;10.55;;
24761;SDS011;12865;51.934;10.330;2024-02-21T06:24:26;20.27;;;9.90;;
24761;SDS011;12865;51.934;10.330;2024-02-21T06:27:12;16.25;;;9.50;;
24761;SDS011;12865;51.934;10.330;2024-02-21T06:30:00;20.50;;;9.82;;
24761;SDS011;12865;51.934;10.330;2024-02-21T06:32:46;16.25;;;9.35;;
24761;SDS011;12865;51.934;10.330;2024-02-21T06:35:31;17.30;;;9.05;;
24761;SDS011;12865;51.934;10.330;2024-02-21T06:38:17;19.63;;;9.18;;
24761;SDS011;12865;51.934;10.330;2024-02-21T06:41:03;16.98;;;9.73;;
24761;SDS011;12865;51.934;10.330;2024-02-21T06:43:50;20.00;;;10.50;;
24761;SDS011;12865;51.934;10.330;2024-02-21T06:46:36;22.13;;;10.30;;
24761;SDS011;12865;51.934;10.330;2024-02-21T06:49:22;16.50;;;9.70;;
24761;SDS011;12865;51.934;10.330;2024-02-21T06:52:07;17.77;;;9.70;;
24761;SDS011;12865;51.934;10.330;2024-02-21T06:54:53;19.20;;;10.00;;
24761;SDS011;12865;51.934;10.330;2024-02-21T06:57:39;17.77;;;8.90;;
24761;SDS011;12865;51.934;10.330;2024-02-21T07:00:25;17.25;;;9.23;;
24761;SDS011;12865;51.934;10.330;2024-02-21T07:03:11;15.20;;;10.18;;
24761;SDS011;12865;51.934;10.330;2024-02-21T07:05:57;17.55;;;9.43;;
24761;SDS011;12865;51.934;10.330;2024-02-21T07:08:43;17.33;;;9.52;;
24761;SDS011;12865;51.934;10.330;2024-02-21T07:11:28;19.27;;;9.40;;
24761;SDS011;12865;51.934;10.330;2024-02-21T07:14:14;19.40;;;9.95;;
24761;SDS011;12865;51.934;10.330;2024-02-21T07:17:01;18.65;;;10.73;;
24761;SDS011;12865;51.934;10.330;2024-02-21T07:19:46;18.15;;;10.35;;
24761;SDS011;12865;51.934;10.330;2024-02-21T07:22:32;19.38;;;9.88;;
24761;SDS011;12865;51.934;10.330;2024-02-21T07:25:18;20.33;;;9.50;;
24761;SDS011;12865;51.934;10.330;2024-02-21T07:28:04;23.73;;;10.75;;
24761;SDS011;12865;51.934;10.330;2024-02-21T07:30:49;20.40;;;10.35;;
24761;SDS011;12865;51.934;10.330;2024-02-21T07:33:35;17.85;;;9.98;;
24761;SDS011;12865;51.934;10.330;2024-02-21T07:36:28;21.00;;;10.25;;
24761;SDS011;12865;51.934;10.330;2024-02-21T07:39:15;20.80;;;9.60;;
24761;SDS011;12865;51.934;10.330;2024-02-21T07:42:01;16.90;;;9.30;;
24761;SDS011;12865;51.934;10.330;2024-02-21T07:44:47;16.83;;;9.70;;
24761;SDS011;12865;51.934;10.330;2024-02-21T07:47:33;18.00;;;10.45;;
24761;SDS011;12865;51.934;10.330;2024-02-21T07:50:19;16.55;;;10.20;;
24761;SDS011;12865;51.934;10.330;2024-02-21T07:53:04;21.13;;;9.95;;
24761;SDS011;12865;51.934;10.330;2024-02-21T07:55:50;18.63;;;10.48;;
24761;SDS011;12865;51.934;10.330;2024-02-21T07:58:36;19.92;;;10.20;;
24761;SDS011;12865;51.934;10.330;2024-02-21T08:01:21;18.08;;;9.77;;
24761;SDS011;12865;51.934;10.330;2024-02-21T08:04:07;18.20;;;10.77;;
24761;SDS011;12865;51.934;10.330;2024-02-21T08:06:53;15.00;;;9.82;;
24761;SDS011;12865;51.934;10.330;2024-02-21T08:09:40;21.05;;;9.95;;
24761;SDS011;12865;51.934;10.330;2024-02-21T08:12:26;16.48;;;9.52;;
24761;SDS011;12865;51.934;10.330;2024-02-21T08:15:12;18.13;;;9.55;;
24761;SDS011;12865;51.934;10.330;2024-02-21T08:17:58;17.02;;;9.75;;
24761;SDS011;12865;51.934;10.330;2024-02-21T08:20:46;18.45;;;9.63;;
24761;SDS011;12865;51.934;10.330;2024-02-21T08:23:32;17.60;;;8.82;;
24761;SDS011;12865;51.934;10.330;2024-02-21T08:26:18;22.63;;;9.95;;
24761;SDS011;12865;51.934;10.330;2024-02-21T08:29:03;13.85;;;8.80;;
24761;SDS011;12865;51.934;10.330;2024-02-21T08:31:49;17.73;;;10.07;;
24761;SDS011;12865;51.934;10.330;2024-02-21T08:34:35;14.95;;;8.52;;
24761;SDS011;12865;51.934;10.330;2024-02-21T08:37:21;17.45;;;8.85;;
24761;SDS011;12865;51.934;10.330;2024-02-21T08:40:06;17.48;;;9.52;;
24761;SDS011;12865;51.934;10.330;2024-02-21T08:42:53;18.15;;;8.77;;
24761;SDS011;12865;51.934;10.330;2024-02-21T08:45:39;17.15;;;9.82;;
24761;SDS011;12865;51.934;10.330;2024-02-21T08:48:25;16.42;;;8.77;;
24761;SDS011;12865;51.934;10.330;2024-02-21T08:51:11;18.85;;;9.07;;
24761;SDS011;12865;51.934;10.330;2024-02-21T08:53:57;14.98;;;9.07;;
24761;SDS011;12865;51.934;10.330;2024-02-21T08:56:44;17.38;;;8.13;;
24761;SDS011;12865;51.934;10.330;2024-02-21T08:59:29;12.90;;;7.82;;
24761;SDS011;12865;51.934;10.330;2024-02-21T09:02:15;18.60;;;8.93;;
24761;SDS011;12865;51.934;10.330;2024-02-21T09:05:01;13.65;;;8.45;;
24761;SDS011;12865;51.934;10.330;2024-02-21T09:07:47;13.55;;;8.07;;
24761;SDS011;12865;51.934;10.330;2024-02-21T09:10:33;15.05;;;7.93;;
24761;SDS011;12865;51.934;10.330;2024-02-21T09:13:19;15.68;;;8.35;;
24761;SDS011;12865;51.934;10.330;2024-02-21T09:16:04;18.15;;;8.27;;
24761;SDS011;12865;51.934;10.330;2024-02-21T09:18:51;17.45;;;8.02;;
24761;SDS011;12865;51.934;10.330;2024-02-21T09:21:37;10.35;;;6.97;;
24761;SDS011;12865;51.934;10.330;2024-02-21T09:24:23;17.20;;;7.60;;
24761;SDS011;12865;51.934;10.330;2024-02-21T09:27:09;14.07;;;7.38;;
24761;SDS011;12865;51.934;10.330;2024-02-21T09:29:55;16.70;;;8.10;;
24761;SDS011;12865;51.934;10.330;2024-02-21T09:32:40;15.05;;;7.45;;
24761;SDS011;12865;51.934;10.330;2024-02-21T09:35:26;15.05;;;7.88;;
24761;SDS011;12865;51.934;10.330;2024-02-21T09:38:13;13.77;;;7.25;;
24761;SDS011;12865;51.934;10.330;2024-02-21T09:44:20;16.20;;;8.32;;
24761;SDS011;12865;51.934;10.330;2024-02-21T09:47:07;12.40;;;6.70;;
24761;SDS011;12865;51.934;10.330;2024-02-21T09:49:59;14.30;;;7.93;;
24761;SDS011;12865;51.934;10.330;2024-02-21T09:52:47;12.50;;;6.65;;
24761;SDS011;12865;51.934;10.330;2024-02-21T09:55:33;11.77;;;6.68;;
24761;SDS011;12865;51.934;10.330;2024-02-21T09:58:20;13.32;;;7.30;;
24761;SDS011;12865;51.934;10.330;2024-02-21T10:01:07;14.70;;;7.55;;
24761;SDS011;12865;51.934;10.330;2024-02-21T10:03:54;10.13;;;6.80;;
24761;SDS011;12865;51.934;10.330;2024-02-21T10:06:39;11.30;;;7.07;;
24761;SDS011;12865;51.934;10.330;2024-02-21T10:09:26;14.07;;;6.72;;
24761;SDS011;12865;51.934;10.330;2024-02-21T10:12:13;14.95;;;7.20;;
24761;SDS011;12865;51.934;10.330;2024-02-21T10:15:05;13.43;;;7.20;;
24761;SDS011;12865;51.934;10.330;2024-02-21T10:17:58;15.50;;;7.38;;
24761;SDS011;12865;51.934;10.330;2024-02-21T10:20:45;12.02;;;7.20;;
24761;SDS011;12865;51.934;10.330;2024-02-21T10:26:32;11.18;;;6.95;;
24761;SDS011;12865;51.934;10.330;2024-02-21T10:29:18;10.63;;;6.22;;
24761;SDS011;12865;51.934;10.330;2024-02-21T10:32:04;12.43;;;6.88;;
24761;SDS011;12865;51.934;10.330;2024-02-21T10:35:00;11.25;;;6.38;;
24761;SDS011;12865;51.934;10.330;2024-02-21T10:37:47;13.68;;;6.78;;
24761;SDS011;12865;51.934;10.330;2024-02-21T10:40:32;16.15;;;6.70;;
24761;SDS011;12865;51.934;10.330;2024-02-21T10:43:18;11.73;;;5.70;;
24761;SDS011;12865;51.934;10.330;2024-02-21T10:46:06;10.60;;;5.78;;
24761;SDS011;12865;51.934;10.330;2024-02-21T10:49:01;10.23;;;5.70;;
24761;SDS011;12865;51.934;10.330;2024-02-21T10:51:59;10.43;;;6.07;;
24761;SDS011;12865;51.934;10.330;2024-02-21T10:55:12;13.68;;;5.97;;
24761;SDS011;12865;51.934;10.330;2024-02-21T10:58:04;13.77;;;6.57;;
24761;SDS011;12865;51.934;10.330;2024-02-21T11:00:50;11.13;;;5.75;;
24761;SDS011;12865;51.934;10.330;2024-02-21T11:03:37;10.68;;;5.60;;
24761;SDS011;12865;51.934;10.330;2024-02-21T11:06:23;12.20;;;6.28;;
24761;SDS011;12865;51.934;10.330;2024-02-21T11:09:11;10.98;;;5.93;;
24761;SDS011;12865;51.934;10.330;2024-02-21T11:11:56;11.02;;;5.72;;
24761;SDS011;12865;51.934;10.330;2024-02-21T11:14:44;9.65;;;5.18;;
24761;SDS011;12865;51.934;10.330;2024-02-21T11:17:29;12.27;;;5.40;;
24761;SDS011;12865;51.934;10.330;2024-02-21T11:20:15;12.93;;;5.18;;
24761;SDS011;12865;51.934;10.330;2024-02-21T11:23:01;8.15;;;4.82;;
24761;SDS011;12865;51.934;10.330;2024-02-21T11:25:46;9.30;;;4.82;;
24761;SDS011;12865;51.934;10.330;2024-02-21T11:28:32;10.30;;;4.97;;
24761;SDS011;12865;51.934;10.330;2024-02-21T11:31:18;8.93;;;4.82;;
24761;SDS011;12865;51.934;10.330;2024-02-21T11:34:04;7.20;;;4.63;;
24761;SDS011;12865;51.934;10.330;2024-02-21T11:36:51;9.85;;;5.32;;
24761;SDS011;12865;51.934;10.330;2024-02-21T11:39:38;7.82;;;4.60;;
24761;SDS011;12865;51.934;10.330;2024-02-21T11:42:24;6.93;;;4.55;;
24761;SDS011;12865;51.934;10.330;2024-02-21T11:45:10;9.38;;;4.47;;
24761;SDS011;12865;51.934;10.330;2024-02-21T11:47:56;8.13;;;4.68;;
24761;SDS011;12865;51.934;10.330;2024-02-21T11:50:42;8.77;;;4.20;;
24761;SDS011;12865;51.934;10.330;2024-02-21T11:53:37;12.02;;;5.03;;
24761;SDS011;12865;51.934;10.330;2024-02-21T11:56:23;9.15;;;4.45;;
24761;SDS011;12865;51.934;10.330;2024-02-21T11:59:09;13.38;;;5.07;;
24761;SDS011;12865;51.934;10.330;2024-02-21T12:01:54;8.93;;;4.32;;
24761;SDS011;12865;51.934;10.330;2024-02-21T12:04:40;11.80;;;4.50;;
24761;SDS011;12865;51.934;10.330;2024-02-21T12:07:27;6.70;;;4.15;;
24761;SDS011;12865;51.934;10.330;2024-02-21T12:10:14;11.27;;;4.55;;
24761;SDS011;12865;51.934;10.330;2024-02-21T12:13:06;8.00;;;4.65;;
24761;SDS011;12865;51.934;10.330;2024-02-21T12:15:53;8.63;;;4.63;;
24761;SDS011;12865;51.934;10.330;2024-02-21T12:18:39;10.10;;;4.28;;
24761;SDS011;12865;51.934;10.330;2024-02-21T12:21:25;10.85;;;5.30;;
24761;SDS011;12865;51.934;10.330;2024-02-21T12:24:22;11.35;;;4.30;;
24761;SDS011;12865;51.934;10.330;2024-02-21T12:27:08;9.27;;;3.88;;
24761;SDS011;12865;51.934;10.330;2024-02-21T12:29:54;10.30;;;4.55;;
24761;SDS011;12865;51.934;10.330;2024-02-21T12:32:40;10.63;;;3.80;;
24761;SDS011;12865;51.934;10.330;2024-02-21T12:35:26;8.35;;;4.20;;
24761;SDS011;12865;51.934;10.330;2024-02-21T12:38:12;10.80;;;4.80;;
24761;SDS011;12865;51.934;10.330;2024-02-21T12:40:59;8.88;;;4.28;;
24761;SDS011;12865;51.934;10.330;2024-02-21T12:43:45;8.48;;;4.30;;
24761;SDS011;12865;51.934;10.330;2024-02-21T12:46:35;10.38;;;4.43;;
24761;SDS011;12865;51.934;10.330;2024-02-21T12:49:21;11.27;;;4.60;;
24761;SDS011;12865;51.934;10.330;2024-02-21T12:52:07;9.13;;;4.07;;
24761;SDS011;12865;51.934;10.330;2024-02-21T12:54:52;10.85;;;4.68;;
24761;SDS011;12865;51.934;10.330;2024-02-21T12:57:41;7.63;;;4.28;;
24761;SDS011;12865;51.934;10.330;2024-02-21T13:00:27;7.85;;;4.20;;
24761;SDS011;12865;51.934;10.330;2024-02-21T13:03:13;8.85;;;4.05;;
24761;SDS011;12865;51.934;10.330;2024-02-21T13:05:59;9.15;;;4.07;;
24761;SDS011;12865;51.934;10.330;2024-02-21T13:08:45;7.22;;;3.78;;
24761;SDS011;12865;51.934;10.330;2024-02-21T13:11:31;10.52;;;3.75;;
24761;SDS011;12865;51.934;10.330;2024-02-21T13:14:17;8.25;;;3.75;;
24761;SDS011;12865;51.934;10.330;2024-02-21T13:17:03;7.93;;;3.58;;
24761;SDS011;12865;51.934;10.330;2024-02-21T13:19:48;7.88;;;3.45;;
24761;SDS011;12865;51.934;10.330;2024-02-21T13:22:34;11.82;;;4.13;;
24761;SDS011;12865;51.934;10.330;2024-02-21T13:25:20;8.15;;;3.50;;
24761;SDS011;12865;51.934;10.330;2024-02-21T13:28:06;9.52;;;3.25;;
24761;SDS011;12865;51.934;10.330;2024-02-21T13:30:52;9.65;;;3.88;;
24761;SDS011;12865;51.934;10.330;2024-02-21T13:33:38;6.70;;;3.38;;
24761;SDS011;12865;51.934;10.330;2024-02-21T13:36:23;7.40;;;3.72;;
24761;SDS011;12865;51.934;10.330;2024-02-21T13:39:09;6.38;;;3.05;;
24761;SDS011;12865;51.934;10.330;2024-02-21T13:41:58;9.43;;;3.35;;
24761;SDS011;12865;51.934;10.330;2024-02-21T13:44:44;6.95;;;3.30;;
24761;SDS011;12865;51.934;10.330;2024-02-21T13:47:30;9.43;;;3.60;;
24761;SDS011;12865;51.934;10.330;2024-02-21T13:50:16;11.50;;;3.22;;
24761;SDS011;12865;51.934;10.330;2024-02-21T13:53:03;8.80;;;3.22;;
24761;SDS011;12865;51.934;10.330;2024-02-21T13:55:49;7.18;;;2.92;;
24761;SDS011;12865;51.934;10.330;2024-02-21T13:58:35;8.23;;;3.90;;
24761;SDS011;12865;51.934;10.330;2024-02-21T14:01:21;5.22;;;2.90;;
24761;SDS011;12865;51.934;10.330;2024-02-21T14:04:07;7.50;;;2.85;;
24761;SDS011;12865;51.934;10.330;2024-02-21T14:06:52;6.18;;;2.60;;
24761;SDS011;12865;51.934;10.330;2024-02-21T14:09:38;6.65;;;3.65;;
24761;SDS011;12865;51.934;10.330;2024-02-21T14:12:24;7.88;;;3.38;;
24761;SDS011;12865;51.934;10.330;2024-02-21T14:15:10;9.15;;;3.47;;
24761;SDS011;12865;51.934;10.330;2024-02-21T14:17:55;8.75;;;3.13;;
24761;SDS011;12865;51.934;10.330;2024-02-21T14:20:42;8.57;;;3.65;;
24761;SDS011;12865;51.934;10.330;2024-02-21T14:23:28;9.35;;;3.17;;
24761;SDS011;12865;51.934;10.330;2024-02-21T14:26:14;7.32;;;3.50;;
24761;SDS011;12865;51.934;10.330;2024-02-21T14:29:00;5.93;;;3.17;;
24761;SDS011;12865;51.934;10.330;2024-02-21T14:31:45;7.60;;;3.72;;
24761;SDS011;12865;51.934;10.330;2024-02-21T14:34:32;8.95;;;3.70;;
24761;SDS011;12865;51.934;10.330;2024-02-21T14:37:17;8.98;;;3.38;;
24761;SDS011;12865;51.934;10.330;2024-02-21T14:40:03;7.95;;;3.20;;
24761;SDS011;12865;51.934;10.330;2024-02-21T14:42:49;9.20;;;3.22;;
24761;SDS011;12865;51.934;10.330;2024-02-21T14:45:35;6.35;;;3.20;;
24761;SDS011;12865;51.934;10.330;2024-02-21T14:48:20;7.03;;;3.67;;
24761;SDS011;12865;51.934;10.330;2024-02-21T14:51:06;6.22;;;3.17;;
24761;SDS011;12865;51.934;10.330;2024-02-21T14:53:52;7.03;;;4.35;;
24761;SDS011;12865;51.934;10.330;2024-02-21T14:56:40;7.97;;;4.00;;
24761;SDS011;12865;51.934;10.330;2024-02-21T14:59:25;9.88;;;3.60;;
24761;SDS011;12865;51.934;10.330;2024-02-21T15:04:39;9.80;;;3.70;;
24761;SDS011;12865;51.934;10.330;2024-02-21T15:07:24;7.97;;;3.50;;
24761;SDS011;12865;51.934;10.330;2024-02-21T15:10:11;8.95;;;4.18;;
24761;SDS011;12865;51.934;10.330;2024-02-21T15:12:57;8.10;;;3.65;;
24761;SDS011;12865;51.934;10.330;2024-02-21T15:15:43;9.30;;;3.55;;
24761;SDS011;12865;51.934;10.330;2024-02-21T15:18:28;5.65;;;3.17;;
24761;SDS011;12865;51.934;10.330;2024-02-21T15:21:14;8.00;;;3.42;;
24761;SDS011;12865;51.934;10.330;2024-02-21T15:24:00;7.95;;;3.28;;
24761;SDS011;12865;51.934;10.330;2024-02-21T15:26:47;9.40;;;3.47;;
24761;SDS011;12865;51.934;10.330;2024-02-21T15:29:33;5.32;;;3.17;;
24761;SDS011;12865;51.934;10.330;2024-02-21T15:32:19;7.15;;;3.22;;
24761;SDS011;12865;51.934;10.330;2024-02-21T15:35:05;6.72;;;3.17;;
24761;SDS011;12865;51.934;10.330;2024-02-21T15:37:52;8.82;;;3.15;;
24761;SDS011;12865;51.934;10.330;2024-02-21T15:40:37;10.57;;;3.35;;
24761;SDS011;12865;51.934;10.330;2024-02-21T15:43:23;7.53;;;3.35;;
24761;SDS011;12865;51.934;10.330;2024-02-21T15:46:11;6.47;;;3.05;;
24761;SDS011;12865;51.934;10.330;2024-02-21T15:48:57;9.02;;;3.60;;
24761;SDS011;12865;51.934;10.330;2024-02-21T15:51:43;9.32;;;3.88;;
24761;SDS011;12865;51.934;10.330;2024-02-21T15:54:29;14.18;;;4.20;;
24761;SDS011;12865;51.934;10.330;2024-02-21T15:57:15;8.50;;;3.70;;
24761;SDS011;12865;51.934;10.330;2024-02-21T16:00:01;9.93;;;4.10;;
24761;SDS011;12865;51.934;10.330;2024-02-21T16:02:46;11.07;;;4.38;;
24761;SDS011;12865;51.934;10.330;2024-02-21T16:05:32;10.02;;;4.25;;
24761;SDS011;12865;51.934;10.330;2024-02-21T16:08:18;9.50;;;3.60;;
24761;SDS011;12865;51.934;10.330;2024-02-21T16:11:04;7.63;;;3.70;;
24761;SDS011;12865;51.934;10.330;2024-02-21T16:13:49;7.53;;;3.55;;
24761;SDS011;12865;51.934;10.330;2024-02-21T16:16:36;12.20;;;4.00;;
24761;SDS011;12865;51.934;10.330;2024-02-21T16:19:25;9.43;;;3.78;;
24761;SDS011;12865;51.934;10.330;2024-02-21T16:22:11;7.55;;;3.65;;
24761;SDS011;12865;51.934;10.330;2024-02-21T16:24:58;10.02;;;4.10;;